KFSD

Joe Foss Field Airport

Sioux Falls, South Dakota, USA
METAR KFSD 230256Z 13007KT 10SM SCT038 SCT070 OVC250 23/18 A2996 RMK AO2 SLP138 T02280178 53008
Observed Flight Rules
May-23 @ 02:56 UTC (7 minutes ago) Visual Flight Rules
Wind Visibility Clouds
130° at 7 knots 10 miles
  • Scattered at 3,800' AGL
  • Scattered at 7,000' AGL
  • Overcast at 25,000' AGL
Temperatures Readings
Current 23°C / 73°F
Dewpoint 18°C / 64°F
Humidity 74%
Altimeter 29.96" Hg
Pressure 1013.8 hPa
Elevation 436
METAR KFSD 230256Z 13007KT 10SM SCT038 SCT070 OVC250 23/18 A2996 RMK AO2 SLP138 T02280178 53008
Observed Flight Rules
May-23 @ 02:56 UTC
(7 minutes ago)
VFR
Wind Visibility
130° at 7 knots 10 miles
Clouds
  • Scattered at 3,800' AGL
  • Scattered at 7,000' AGL
  • Overcast at 25,000' AGL
Temperature Dewpoint
23°C / 73°F 18°C / 64°F
Humidity Altimeter Pressure
74% 29.96" Hg 1013.8 hPa